SWA507 KMYR-KBNA
Flight info
| Callsign | SWA507 |
|---|---|
| Flight time | 1h 27m |
| Altitude | 38000 |
| Route | CAE AHN RMG KM27M KISTS CHSNE2 |
| Aircraft | B738/M-SDE2E3FGHIRWXY/LB1 |
Departure
| Time | 2026-04-26 18:33 |
|---|---|
| Airport | Myrtle Beach International Airport (KMYR) |
Arrival
| Time | 2026-04-26 20:00 |
|---|---|
| Airport | Nashville International Airport (KBNA) |
| Time | Latitude | Longitude | Altitude | Speed | Heading |
|---|---|---|---|---|---|
| 2026-04-26 17:41 | 33.68213 | -78.92411 | 31 ft | 0 kts | 92° |
| 2026-04-26 17:42 | 33.68213 | -78.92412 | 31 ft | 0 kts | 92° |
| 2026-04-26 17:53 | 33.68213 | -78.92413 | 22 ft | 0 kts | 92° |
| 2026-04-26 18:03 | 33.68213 | -78.92414 | 31 ft | 0 kts | 92° |
| 2026-04-26 18:14 | 33.68213 | -78.92415 | 31 ft | 0 kts | 92° |
| 2026-04-26 18:17 | 33.68213 | -78.92419 | 31 ft | 2 kts | 92° |
| 2026-04-26 18:18 | 33.68214 | -78.92439 | 31 ft | 3 kts | 93° |
| 2026-04-26 18:18 | 33.68217 | -78.92462 | 31 ft | 3 kts | 123° |
| 2026-04-26 18:18 | 33.68230 | -78.92477 | 28 ft | 3 kts | 158° |
| 2026-04-26 18:18 | 33.68245 | -78.92482 | 30 ft | 1 kts | 172° |
| 2026-04-26 18:19 | 33.68247 | -78.92483 | 30 ft | 2 kts | 172° |
| 2026-04-26 18:28 | 33.68223 | -78.92501 | 31 ft | 7 kts | 224° |
| 2026-04-26 18:28 | 33.68185 | -78.92558 | 31 ft | 10 kts | 250° |
| 2026-04-26 18:28 | 33.68168 | -78.92657 | 31 ft | 14 kts | 241° |
| 2026-04-26 18:28 | 33.68069 | -78.92651 | 31 ft | 18 kts | 169° |
| 2026-04-26 18:29 | 33.67930 | -78.92616 | 31 ft | 21 kts | 168° |
| 2026-04-26 18:29 | 33.67788 | -78.92581 | 31 ft | 20 kts | 169° |
| 2026-04-26 18:29 | 33.67651 | -78.92549 | 31 ft | 20 kts | 169° |
| 2026-04-26 18:29 | 33.67518 | -78.92518 | 31 ft | 19 kts | 168° |
| 2026-04-26 18:30 | 33.67389 | -78.92486 | 31 ft | 19 kts | 168° |
| 2026-04-26 18:30 | 33.67261 | -78.92453 | 31 ft | 21 kts | 167° |
| 2026-04-26 18:30 | 33.67113 | -78.92407 | 31 ft | 22 kts | 152° |
| 2026-04-26 18:30 | 33.66975 | -78.92339 | 31 ft | 21 kts | 168° |
| 2026-04-26 18:31 | 33.66832 | -78.92303 | 31 ft | 21 kts | 168° |
| 2026-04-26 18:31 | 33.66750 | -78.92306 | 31 ft | 9 kts | 234° |
| 2026-04-26 18:31 | 33.66733 | -78.92380 | 32 ft | 9 kts | 256° |
| 2026-04-26 18:31 | 33.66720 | -78.92452 | 33 ft | 9 kts | 257° |
| 2026-04-26 18:32 | 33.66731 | -78.92517 | 31 ft | 9 kts | 323° |
| 2026-04-26 18:32 | 33.66793 | -78.92537 | 33 ft | 12 kts | 348° |
| 2026-04-26 18:32 | 33.67110 | -78.92617 | 31 ft | 90 kts | 348° |
| 2026-04-26 18:32 | 33.67977 | -78.92836 | 71 ft | 159 kts | 349° |
| 2026-04-26 18:33 | 33.69121 | -78.93109 | 841 ft | 176 kts | 351° |
| 2026-04-26 18:33 | 33.70366 | -78.93472 | 1908 ft | 177 kts | 347° |
| 2026-04-26 18:33 | 33.71592 | -78.93861 | 2615 ft | 196 kts | 348° |
| 2026-04-26 18:33 | 33.73013 | -78.94290 | 2841 ft | 224 kts | 345° |
| 2026-04-26 18:34 | 33.74345 | -78.95288 | 3411 ft | 235 kts | 310° |
| 2026-04-26 18:34 | 33.75167 | -78.97006 | 4080 ft | 241 kts | 301° |
| 2026-04-26 18:34 | 33.75965 | -78.98783 | 4769 ft | 243 kts | 301° |
| 2026-04-26 18:34 | 33.76771 | -79.00572 | 5460 ft | 243 kts | 301° |
| 2026-04-26 18:35 | 33.77603 | -79.02360 | 6052 ft | 247 kts | 300° |
| 2026-04-26 18:35 | 33.78171 | -79.04320 | 6677 ft | 251 kts | 281° |
| 2026-04-26 18:35 | 33.78200 | -79.06412 | 7328 ft | 254 kts | 257° |
| 2026-04-26 18:35 | 33.77400 | -79.08332 | 7975 ft | 261 kts | 241° |
| 2026-04-26 18:36 | 33.76420 | -79.10278 | 8336 ft | 281 kts | 242° |
| 2026-04-26 18:36 | 33.75405 | -79.12315 | 9130 ft | 286 kts | 241° |
| 2026-04-26 18:36 | 33.74378 | -79.14367 | 10050 ft | 286 kts | 241° |
| 2026-04-26 18:36 | 33.73335 | -79.16445 | 10637 ft | 299 kts | 241° |
| 2026-04-26 18:37 | 33.72222 | -79.18686 | 10811 ft | 325 kts | 241° |
| 2026-04-26 18:37 | 33.71025 | -79.21113 | 11002 ft | 348 kts | 241° |
| 2026-04-26 18:37 | 33.69755 | -79.23705 | 11171 ft | 370 kts | 241° |
| 2026-04-26 18:37 | 33.68427 | -79.26423 | 11563 ft | 383 kts | 241° |
| 2026-04-26 18:38 | 33.67283 | -79.29320 | 12174 ft | 386 kts | 254° |
| 2026-04-26 18:38 | 33.66854 | -79.32488 | 12960 ft | 385 kts | 266° |
| 2026-04-26 18:38 | 33.66800 | -79.35669 | 13689 ft | 387 kts | 274° |
| 2026-04-26 18:38 | 33.67107 | -79.38890 | 14298 ft | 391 kts | 277° |
| 2026-04-26 18:39 | 33.67498 | -79.42146 | 14891 ft | 395 kts | 278° |
| 2026-04-26 18:39 | 33.67908 | -79.45416 | 15493 ft | 397 kts | 278° |
| 2026-04-26 18:39 | 33.68320 | -79.48711 | 16042 ft | 399 kts | 278° |
| 2026-04-26 18:39 | 33.68727 | -79.52028 | 16564 ft | 402 kts | 278° |
| 2026-04-26 18:40 | 33.69130 | -79.55365 | 17088 ft | 405 kts | 278° |
| 2026-04-26 18:40 | 33.69529 | -79.58735 | 17598 ft | 408 kts | 278° |
| 2026-04-26 18:40 | 33.69927 | -79.62122 | 18088 ft | 411 kts | 278° |
| 2026-04-26 18:40 | 33.70324 | -79.65535 | 18546 ft | 413 kts | 278° |
| 2026-04-26 18:41 | 33.70721 | -79.68964 | 19070 ft | 414 kts | 278° |
| 2026-04-26 18:41 | 33.71110 | -79.72344 | 19585 ft | 414 kts | 278° |
| 2026-04-26 18:41 | 33.71504 | -79.75772 | 20089 ft | 415 kts | 278° |
| 2026-04-26 18:41 | 33.71898 | -79.79207 | 20581 ft | 415 kts | 278° |
| 2026-04-26 18:42 | 33.72292 | -79.82650 | 21075 ft | 416 kts | 278° |
| 2026-04-26 18:42 | 33.72686 | -79.86099 | 21560 ft | 416 kts | 278° |
| 2026-04-26 18:42 | 33.73080 | -79.89559 | 22025 ft | 417 kts | 278° |
| 2026-04-26 18:42 | 33.73474 | -79.93028 | 22453 ft | 419 kts | 278° |
| 2026-04-26 18:43 | 33.73863 | -79.96458 | 22867 ft | 420 kts | 278° |
| 2026-04-26 18:43 | 33.74257 | -79.99941 | 23270 ft | 422 kts | 278° |
| 2026-04-26 18:43 | 33.74657 | -80.03486 | 23653 ft | 423 kts | 278° |
| 2026-04-26 18:43 | 33.75053 | -80.07007 | 23952 ft | 425 kts | 278° |
| 2026-04-26 18:44 | 33.75444 | -80.10491 | 24252 ft | 427 kts | 278° |
| 2026-04-26 18:44 | 33.75711 | -80.12882 | 24445 ft | 428 kts | 278° |
| 2026-04-26 18:44 | 33.76109 | -80.16441 | 24742 ft | 430 kts | 278° |
| 2026-04-26 18:44 | 33.76636 | -80.21181 | 25156 ft | 432 kts | 278° |
| 2026-04-26 18:45 | 33.77034 | -80.24767 | 25449 ft | 434 kts | 278° |
| 2026-04-26 18:45 | 33.77433 | -80.28366 | 25718 ft | 436 kts | 278° |
| 2026-04-26 18:45 | 33.77832 | -80.31983 | 25988 ft | 437 kts | 278° |
| 2026-04-26 18:45 | 33.78231 | -80.35609 | 26328 ft | 436 kts | 278° |
| 2026-04-26 18:46 | 33.78499 | -80.38050 | 26594 ft | 435 kts | 278° |
| 2026-04-26 18:46 | 33.78893 | -80.41646 | 27038 ft | 433 kts | 278° |
| 2026-04-26 18:46 | 33.79280 | -80.45190 | 27450 ft | 432 kts | 278° |
| 2026-04-26 18:46 | 33.79670 | -80.48768 | 27833 ft | 431 kts | 278° |
| 2026-04-26 18:47 | 33.80061 | -80.52344 | 28230 ft | 431 kts | 279° |
| 2026-04-26 18:47 | 33.80690 | -80.55854 | 28618 ft | 429 kts | 288° |
| 2026-04-26 18:47 | 33.81735 | -80.59217 | 29083 ft | 427 kts | 290° |
| 2026-04-26 18:47 | 33.82802 | -80.62543 | 29512 ft | 426 kts | 290° |
| 2026-04-26 18:48 | 33.83859 | -80.65874 | 29910 ft | 426 kts | 290° |
| 2026-04-26 18:48 | 33.84906 | -80.69211 | 30289 ft | 424 kts | 290° |
| 2026-04-26 18:48 | 33.85937 | -80.72520 | 30703 ft | 421 kts | 290° |
| 2026-04-26 18:48 | 33.86956 | -80.75812 | 31174 ft | 417 kts | 290° |
| 2026-04-26 18:49 | 33.87953 | -80.79040 | 31589 ft | 415 kts | 290° |
| 2026-04-26 18:49 | 33.88955 | -80.82295 | 31967 ft | 413 kts | 291° |
| 2026-04-26 18:49 | 33.89949 | -80.85528 | 32345 ft | 411 kts | 291° |
| 2026-04-26 18:49 | 33.90941 | -80.88754 | 32738 ft | 408 kts | 291° |
| 2026-04-26 18:50 | 33.91923 | -80.91955 | 33150 ft | 406 kts | 291° |
| 2026-04-26 18:50 | 33.92895 | -80.95128 | 33621 ft | 402 kts | 291° |
| 2026-04-26 18:50 | 33.93859 | -80.98276 | 34011 ft | 399 kts | 291° |
| 2026-04-26 18:50 | 33.94820 | -81.01415 | 34272 ft | 399 kts | 291° |
| 2026-04-26 18:51 | 33.95782 | -81.04562 | 34461 ft | 401 kts | 291° |
| 2026-04-26 18:51 | 33.96746 | -81.07719 | 34645 ft | 401 kts | 291° |
| 2026-04-26 18:51 | 33.97710 | -81.10877 | 34894 ft | 401 kts | 291° |
| 2026-04-26 18:51 | 33.98657 | -81.13984 | 35140 ft | 401 kts | 291° |
| 2026-04-26 18:52 | 33.99619 | -81.17145 | 35360 ft | 401 kts | 291° |
| 2026-04-26 18:52 | 34.00581 | -81.20309 | 35581 ft | 401 kts | 291° |
| 2026-04-26 18:52 | 34.01540 | -81.23467 | 35811 ft | 401 kts | 291° |
| 2026-04-26 18:52 | 34.02500 | -81.26631 | 36030 ft | 401 kts | 291° |
| 2026-04-26 18:53 | 34.03458 | -81.29791 | 36253 ft | 401 kts | 291° |
| 2026-04-26 18:53 | 34.04411 | -81.32941 | 36532 ft | 400 kts | 291° |
| 2026-04-26 18:53 | 34.05366 | -81.36098 | 36778 ft | 400 kts | 291° |
| 2026-04-26 18:53 | 34.06308 | -81.39213 | 36986 ft | 400 kts | 291° |
| 2026-04-26 18:54 | 34.07263 | -81.42380 | 37165 ft | 401 kts | 291° |
| 2026-04-26 18:54 | 34.08218 | -81.45545 | 37335 ft | 401 kts | 291° |
| 2026-04-26 18:54 | 34.09171 | -81.48710 | 37529 ft | 401 kts | 291° |
| 2026-04-26 18:54 | 34.10124 | -81.51877 | 37726 ft | 401 kts | 291° |
| 2026-04-26 18:55 | 34.11076 | -81.55044 | 37910 ft | 401 kts | 291° |
| 2026-04-26 18:55 | 34.12017 | -81.58178 | 37999 ft | 403 kts | 291° |
| 2026-04-26 18:55 | 34.13929 | -81.64560 | 38025 ft | 403 kts | 291° |
| 2026-04-26 18:56 | 34.15831 | -81.70919 | 38007 ft | 401 kts | 291° |
| 2026-04-26 18:56 | 34.17721 | -81.77253 | 38009 ft | 399 kts | 291° |
| 2026-04-26 18:57 | 34.19279 | -81.82487 | 38009 ft | 397 kts | 291° |
| 2026-04-26 18:57 | 34.21447 | -81.89781 | 38012 ft | 397 kts | 291° |
| 2026-04-26 18:58 | 34.23309 | -81.96062 | 38014 ft | 397 kts | 291° |
| 2026-04-26 18:58 | 34.25172 | -82.02357 | 38015 ft | 397 kts | 291° |
| 2026-04-26 18:59 | 34.27018 | -82.08612 | 38019 ft | 398 kts | 291° |
| 2026-04-26 18:59 | 34.28880 | -82.14931 | 38024 ft | 399 kts | 291° |
| 2026-04-26 19:00 | 34.30746 | -82.21279 | 38022 ft | 400 kts | 291° |
| 2026-04-26 19:00 | 34.32614 | -82.27649 | 38015 ft | 402 kts | 291° |
| 2026-04-26 19:01 | 34.34481 | -82.34030 | 38002 ft | 402 kts | 291° |
| 2026-04-26 19:01 | 34.36348 | -82.40424 | 37984 ft | 403 kts | 291° |
| 2026-04-26 19:02 | 34.38198 | -82.46777 | 37984 ft | 402 kts | 291° |
| 2026-04-26 19:02 | 34.39756 | -82.52133 | 37978 ft | 402 kts | 291° |
| 2026-04-26 19:03 | 34.41921 | -82.59599 | 37975 ft | 402 kts | 291° |
| 2026-04-26 19:03 | 34.43768 | -82.65981 | 37975 ft | 401 kts | 291° |
| 2026-04-26 19:04 | 34.45613 | -82.72368 | 37999 ft | 401 kts | 291° |
| 2026-04-26 19:04 | 34.47451 | -82.78751 | 37985 ft | 401 kts | 291° |
| 2026-04-26 19:05 | 34.50200 | -82.88321 | 37992 ft | 400 kts | 291° |
| 2026-04-26 19:06 | 34.52026 | -82.94693 | 37996 ft | 400 kts | 291° |
| 2026-04-26 19:06 | 34.53847 | -83.01064 | 38024 ft | 400 kts | 291° |
| 2026-04-26 19:07 | 34.55656 | -83.07406 | 38011 ft | 401 kts | 291° |
| 2026-04-26 19:07 | 34.57478 | -83.13809 | 38011 ft | 401 kts | 291° |
| 2026-04-26 19:08 | 34.59296 | -83.20216 | 38015 ft | 400 kts | 291° |
| 2026-04-26 19:08 | 34.61107 | -83.26610 | 38018 ft | 400 kts | 291° |
| 2026-04-26 19:09 | 34.62913 | -83.32999 | 38016 ft | 400 kts | 291° |
| 2026-04-26 19:09 | 34.64715 | -83.39388 | 38024 ft | 399 kts | 291° |
| 2026-04-26 19:10 | 34.66035 | -83.45920 | 37999 ft | 405 kts | 278° |
| 2026-04-26 19:10 | 34.66383 | -83.52768 | 38005 ft | 406 kts | 278° |
| 2026-04-26 19:11 | 34.66751 | -83.59606 | 37990 ft | 404 kts | 278° |
| 2026-04-26 19:11 | 34.67131 | -83.66420 | 37989 ft | 404 kts | 278° |
| 2026-04-26 19:12 | 34.67515 | -83.73275 | 37990 ft | 404 kts | 278° |
| 2026-04-26 19:12 | 34.67893 | -83.80077 | 38000 ft | 403 kts | 278° |
| 2026-04-26 19:13 | 34.68263 | -83.86812 | 37991 ft | 402 kts | 278° |
| 2026-04-26 19:13 | 34.68631 | -83.93577 | 38004 ft | 401 kts | 278° |
| 2026-04-26 19:14 | 34.68997 | -84.00356 | 38037 ft | 402 kts | 278° |
| 2026-04-26 19:14 | 34.69359 | -84.07151 | 38008 ft | 403 kts | 278° |
| 2026-04-26 19:15 | 34.69721 | -84.13974 | 38001 ft | 403 kts | 278° |
| 2026-04-26 19:15 | 34.70073 | -84.20733 | 38016 ft | 402 kts | 278° |
| 2026-04-26 19:16 | 34.70426 | -84.27566 | 38006 ft | 403 kts | 278° |
| 2026-04-26 19:16 | 34.70773 | -84.34360 | 37992 ft | 401 kts | 278° |
| 2026-04-26 19:17 | 34.71111 | -84.41072 | 37990 ft | 400 kts | 278° |
| 2026-04-26 19:17 | 34.71448 | -84.47813 | 37993 ft | 398 kts | 278° |
| 2026-04-26 19:18 | 34.71781 | -84.54542 | 37996 ft | 397 kts | 278° |
| 2026-04-26 19:18 | 34.72110 | -84.61252 | 37988 ft | 397 kts | 278° |
| 2026-04-26 19:19 | 34.72433 | -84.67923 | 37996 ft | 397 kts | 278° |
| 2026-04-26 19:19 | 34.72752 | -84.74626 | 37997 ft | 396 kts | 278° |
| 2026-04-26 19:20 | 34.73015 | -84.80183 | 37993 ft | 395 kts | 278° |
| 2026-04-26 19:20 | 34.73327 | -84.86865 | 38001 ft | 395 kts | 278° |
| 2026-04-26 19:21 | 34.73636 | -84.93545 | 37997 ft | 395 kts | 278° |
| 2026-04-26 19:21 | 34.73939 | -85.00176 | 37999 ft | 395 kts | 278° |
| 2026-04-26 19:22 | 34.74240 | -85.06839 | 37998 ft | 394 kts | 278° |
| 2026-04-26 19:22 | 34.74536 | -85.13498 | 37994 ft | 394 kts | 278° |
| 2026-04-26 19:23 | 34.74829 | -85.20151 | 37989 ft | 394 kts | 278° |
| 2026-04-26 19:23 | 34.75119 | -85.26812 | 38002 ft | 393 kts | 278° |
| 2026-04-26 19:24 | 34.75402 | -85.33404 | 38018 ft | 393 kts | 278° |
| 2026-04-26 19:24 | 34.75824 | -85.43380 | 38012 ft | 394 kts | 278° |
| 2026-04-26 19:25 | 34.76055 | -85.48915 | 38009 ft | 394 kts | 278° |
| 2026-04-26 19:25 | 34.76372 | -85.56656 | 38000 ft | 393 kts | 278° |
| 2026-04-26 19:26 | 34.76641 | -85.63312 | 37993 ft | 393 kts | 277° |
| 2026-04-26 19:26 | 34.76907 | -85.69961 | 37995 ft | 393 kts | 277° |
| 2026-04-26 19:27 | 34.77169 | -85.76611 | 37995 ft | 393 kts | 277° |
| 2026-04-26 19:27 | 34.77427 | -85.83205 | 37993 ft | 393 kts | 277° |
| 2026-04-26 19:28 | 34.78055 | -85.89797 | 37999 ft | 386 kts | 290° |
| 2026-04-26 19:28 | 34.80073 | -85.95769 | 37988 ft | 383 kts | 300° |
| 2026-04-26 19:29 | 34.83037 | -86.01159 | 37989 ft | 383 kts | 305° |
| 2026-04-26 19:29 | 34.86115 | -86.06465 | 37993 ft | 383 kts | 305° |
| 2026-04-26 19:30 | 34.89182 | -86.11782 | 37991 ft | 384 kts | 304° |
| 2026-04-26 19:30 | 34.91752 | -86.16273 | 37988 ft | 385 kts | 304° |
| 2026-04-26 19:31 | 34.95316 | -86.22524 | 37991 ft | 387 kts | 304° |
| 2026-04-26 19:31 | 34.98387 | -86.27935 | 37996 ft | 387 kts | 304° |
| 2026-04-26 19:32 | 35.01453 | -86.33341 | 37622 ft | 384 kts | 304° |
| 2026-04-26 19:32 | 35.02958 | -86.35997 | 37350 ft | 379 kts | 304° |
| 2026-04-26 19:32 | 35.04456 | -86.38644 | 37093 ft | 379 kts | 304° |
| 2026-04-26 19:33 | 35.05964 | -86.41311 | 36840 ft | 383 kts | 304° |
| 2026-04-26 19:33 | 35.07468 | -86.43972 | 36591 ft | 388 kts | 304° |
| 2026-04-26 19:33 | 35.09004 | -86.46692 | 36348 ft | 390 kts | 304° |
| 2026-04-26 19:33 | 35.10545 | -86.49423 | 36110 ft | 389 kts | 304° |
| 2026-04-26 19:34 | 35.13620 | -86.54876 | 36007 ft | 389 kts | 304° |
| 2026-04-26 19:34 | 35.16702 | -86.60351 | 35673 ft | 394 kts | 304° |
| 2026-04-26 19:35 | 35.18252 | -86.63109 | 35427 ft | 393 kts | 304° |
| 2026-04-26 19:35 | 35.19781 | -86.65831 | 34746 ft | 387 kts | 304° |
| 2026-04-26 19:35 | 35.21316 | -86.68565 | 34008 ft | 391 kts | 304° |
| 2026-04-26 19:35 | 35.22854 | -86.71309 | 33438 ft | 389 kts | 304° |
| 2026-04-26 19:36 | 35.24379 | -86.74029 | 32951 ft | 385 kts | 304° |
| 2026-04-26 19:36 | 35.25378 | -86.75814 | 32608 ft | 383 kts | 304° |
| 2026-04-26 19:36 | 35.27374 | -86.79380 | 31862 ft | 382 kts | 304° |
| 2026-04-26 19:36 | 35.28879 | -86.82072 | 31270 ft | 383 kts | 304° |
| 2026-04-26 19:37 | 35.30384 | -86.84766 | 30728 ft | 382 kts | 304° |
| 2026-04-26 19:37 | 35.31887 | -86.87458 | 30203 ft | 382 kts | 304° |
| 2026-04-26 19:37 | 35.33386 | -86.90147 | 29654 ft | 381 kts | 304° |
| 2026-04-26 19:37 | 35.34874 | -86.92821 | 29115 ft | 379 kts | 304° |
| 2026-04-26 19:38 | 35.36353 | -86.95474 | 28570 ft | 376 kts | 304° |
| 2026-04-26 19:38 | 35.37833 | -86.98130 | 28001 ft | 376 kts | 304° |
| 2026-04-26 19:38 | 35.39303 | -87.00772 | 27499 ft | 374 kts | 304° |
| 2026-04-26 19:38 | 35.40765 | -87.03401 | 27002 ft | 371 kts | 304° |
| 2026-04-26 19:39 | 35.42215 | -87.06014 | 26534 ft | 369 kts | 304° |
| 2026-04-26 19:39 | 35.43660 | -87.08617 | 26055 ft | 368 kts | 304° |
| 2026-04-26 19:39 | 35.45095 | -87.11205 | 25568 ft | 367 kts | 304° |
| 2026-04-26 19:39 | 35.46526 | -87.13788 | 25107 ft | 365 kts | 304° |
| 2026-04-26 19:40 | 35.47950 | -87.16361 | 24668 ft | 364 kts | 304° |
| 2026-04-26 19:40 | 35.49352 | -87.18895 | 24238 ft | 363 kts | 304° |
| 2026-04-26 19:40 | 35.50767 | -87.21453 | 23800 ft | 361 kts | 304° |
| 2026-04-26 19:40 | 35.52177 | -87.24006 | 23334 ft | 360 kts | 304° |
| 2026-04-26 19:41 | 35.53581 | -87.26549 | 22859 ft | 359 kts | 304° |
| 2026-04-26 19:41 | 35.54980 | -87.29084 | 22392 ft | 357 kts | 304° |
| 2026-04-26 19:41 | 35.56367 | -87.31600 | 21950 ft | 354 kts | 304° |
| 2026-04-26 19:41 | 35.57281 | -87.33260 | 21657 ft | 353 kts | 304° |
| 2026-04-26 19:42 | 35.59119 | -87.36597 | 21028 ft | 352 kts | 304° |
| 2026-04-26 19:42 | 35.60488 | -87.39087 | 20583 ft | 350 kts | 303° |
| 2026-04-26 19:42 | 35.61849 | -87.41561 | 20152 ft | 349 kts | 303° |
| 2026-04-26 19:42 | 35.63204 | -87.44029 | 19736 ft | 348 kts | 303° |
| 2026-04-26 19:43 | 35.64555 | -87.46490 | 19319 ft | 346 kts | 303° |
| 2026-04-26 19:43 | 35.65976 | -87.48878 | 19031 ft | 346 kts | 314° |
| 2026-04-26 19:43 | 35.68023 | -87.50476 | 19005 ft | 355 kts | 340° |
| 2026-04-26 19:43 | 35.70450 | -87.50840 | 18865 ft | 362 kts | 3° |
| 2026-04-26 19:44 | 35.72893 | -87.49998 | 18466 ft | 368 kts | 22° |
| 2026-04-26 19:44 | 35.75216 | -87.48587 | 18184 ft | 364 kts | 25° |
| 2026-04-26 19:44 | 35.77437 | -87.47134 | 17854 ft | 360 kts | 26° |
| 2026-04-26 19:44 | 35.79635 | -87.45674 | 17457 ft | 357 kts | 26° |
| 2026-04-26 19:45 | 35.81822 | -87.44218 | 17035 ft | 356 kts | 26° |
| 2026-04-26 19:45 | 35.84000 | -87.42768 | 16651 ft | 354 kts | 26° |
| 2026-04-26 19:45 | 35.86156 | -87.41335 | 16267 ft | 351 kts | 26° |
| 2026-04-26 19:45 | 35.88306 | -87.39912 | 15888 ft | 349 kts | 26° |
| 2026-04-26 19:46 | 35.90447 | -87.38498 | 15518 ft | 347 kts | 26° |
| 2026-04-26 19:46 | 35.92581 | -87.37095 | 15151 ft | 345 kts | 26° |
| 2026-04-26 19:46 | 35.94687 | -87.35716 | 14781 ft | 343 kts | 26° |
| 2026-04-26 19:46 | 35.96799 | -87.34340 | 14436 ft | 341 kts | 26° |
| 2026-04-26 19:47 | 35.98919 | -87.32962 | 14075 ft | 340 kts | 26° |
| 2026-04-26 19:47 | 35.99576 | -87.32537 | 13964 ft | 339 kts | 27° |
| 2026-04-26 19:47 | 36.03047 | -87.30325 | 13360 ft | 335 kts | 26° |
| 2026-04-26 19:47 | 36.05118 | -87.29025 | 12991 ft | 333 kts | 26° |
| 2026-04-26 19:48 | 36.07177 | -87.27743 | 12602 ft | 331 kts | 26° |
| 2026-04-26 19:48 | 36.09233 | -87.26471 | 12233 ft | 329 kts | 26° |
| 2026-04-26 19:48 | 36.11281 | -87.25214 | 11874 ft | 327 kts | 26° |
| 2026-04-26 19:48 | 36.13319 | -87.23972 | 11515 ft | 325 kts | 26° |
| 2026-04-26 19:49 | 36.15344 | -87.22748 | 11172 ft | 323 kts | 26° |
| 2026-04-26 19:49 | 36.17362 | -87.21540 | 10821 ft | 321 kts | 26° |
| 2026-04-26 19:49 | 36.19376 | -87.20344 | 10474 ft | 320 kts | 27° |
| 2026-04-26 19:49 | 36.21380 | -87.19168 | 10126 ft | 316 kts | 26° |
| 2026-04-26 19:50 | 36.23339 | -87.18036 | 9555 ft | 313 kts | 26° |
| 2026-04-26 19:50 | 36.25321 | -87.16903 | 8907 ft | 313 kts | 26° |
| 2026-04-26 19:50 | 36.27292 | -87.15780 | 8367 ft | 309 kts | 26° |
| 2026-04-26 19:50 | 36.29079 | -87.14447 | 8062 ft | 294 kts | 46° |
| 2026-04-26 19:51 | 36.30100 | -87.12334 | 7606 ft | 285 kts | 77° |
| 2026-04-26 19:51 | 36.30362 | -87.09890 | 7182 ft | 287 kts | 85° |
| 2026-04-26 19:51 | 36.30522 | -87.07435 | 6918 ft | 283 kts | 86° |
| 2026-04-26 19:51 | 36.30672 | -87.05011 | 6675 ft | 280 kts | 86° |
| 2026-04-26 19:52 | 36.30815 | -87.02600 | 6318 ft | 281 kts | 86° |
| 2026-04-26 19:52 | 36.30953 | -87.00170 | 5965 ft | 281 kts | 86° |
| 2026-04-26 19:52 | 36.31087 | -86.97769 | 5700 ft | 277 kts | 86° |
| 2026-04-26 19:52 | 36.31223 | -86.95382 | 5340 ft | 278 kts | 86° |
| 2026-04-26 19:53 | 36.31357 | -86.92999 | 5049 ft | 277 kts | 86° |
| 2026-04-26 19:53 | 36.31490 | -86.90654 | 4767 ft | 276 kts | 86° |
| 2026-04-26 19:53 | 36.31625 | -86.88261 | 4456 ft | 274 kts | 86° |
| 2026-04-26 19:53 | 36.31756 | -86.85898 | 4129 ft | 273 kts | 86° |
| 2026-04-26 19:54 | 36.31821 | -86.84339 | 3903 ft | 273 kts | 91° |
| 2026-04-26 19:54 | 36.31497 | -86.82040 | 3723 ft | 267 kts | 104° |
| 2026-04-26 19:54 | 36.31005 | -86.79861 | 3635 ft | 257 kts | 105° |
| 2026-04-26 19:54 | 36.30516 | -86.77764 | 3523 ft | 248 kts | 105° |
| 2026-04-26 19:55 | 36.30038 | -86.75738 | 3434 ft | 241 kts | 106° |
| 2026-04-26 19:55 | 36.29574 | -86.73786 | 3353 ft | 231 kts | 106° |
| 2026-04-26 19:55 | 36.29124 | -86.71913 | 3317 ft | 223 kts | 105° |
| 2026-04-26 19:55 | 36.28684 | -86.70093 | 3235 ft | 216 kts | 105° |
| 2026-04-26 19:56 | 36.28261 | -86.68342 | 3151 ft | 209 kts | 106° |
| 2026-04-26 19:56 | 36.27853 | -86.66645 | 3032 ft | 200 kts | 106° |
| 2026-04-26 19:56 | 36.27465 | -86.65035 | 3010 ft | 189 kts | 105° |
| 2026-04-26 19:56 | 36.26891 | -86.63612 | 2980 ft | 190 kts | 137° |
| 2026-04-26 19:57 | 36.25682 | -86.63058 | 3014 ft | 190 kts | 176° |
| 2026-04-26 19:57 | 36.24393 | -86.63498 | 2885 ft | 201 kts | 206° |
| 2026-04-26 19:57 | 36.23076 | -86.64205 | 2621 ft | 205 kts | 197° |
| 2026-04-26 19:57 | 36.21752 | -86.64773 | 2341 ft | 197 kts | 195° |
| 2026-04-26 19:58 | 36.20473 | -86.65315 | 2052 ft | 190 kts | 195° |
| 2026-04-26 19:58 | 36.19234 | -86.65741 | 1792 ft | 182 kts | 194° |
| 2026-04-26 19:58 | 36.18043 | -86.66202 | 1540 ft | 176 kts | 195° |
| 2026-04-26 19:58 | 36.16928 | -86.66648 | 1370 ft | 161 kts | 194° |
| 2026-04-26 19:59 | 36.15895 | -86.67040 | 1091 ft | 153 kts | 195° |
| 2026-04-26 19:59 | 36.14880 | -86.67430 | 838 ft | 150 kts | 192° |
| 2026-04-26 19:59 | 36.13882 | -86.67821 | 643 ft | 150 kts | 194° |
| 2026-04-26 19:59 | 36.12927 | -86.68192 | 578 ft | 132 kts | 198° |
| 2026-04-26 20:00 | 36.12382 | -86.68407 | 571 ft | 45 kts | 197° |
| 2026-04-26 20:00 | 36.12189 | -86.68478 | 569 ft | 19 kts | 181° |